FLL weather

Fort Lauderdale Hollywood International Airport
Fort Lauderdale, Florida, United States

Public forecast

Using degrees Fahrenheit for public forecast. Weather courtesy of forecast.io.

METAR (pilot weather report)

Retrieved 2018/04/26 19:53 UTC (33 minutes ago):

KFLL 261953Z 12010KT 10SM FEW050 SCT250 27/19 A2989 RMK AO2 SLP122 T02720189

TAF (pilot weather forecast)

Retrieved 2018/04/26 18:48 UTC (2 hours ago):

TAF KFLL 261742Z 2618/2724 19008KT P6SM FEW050 FM270100 24005KT P6SM SKC FM271500 15009KT P6SM SCT030 SCT050 FM272300 25006KT P6SM FEW035